Trego, Wisconsin
Current Conditions -  °F | °C
As of 5:53 AM on Friday 28 Nov 2014 (Local Time) from KHYR Reporting Station
Overcast Overcast  
Wind Chill:   Ceiling: 3100
Heat Index:   Visibility: 9mi
Dew Point:   Wind: 3mph
Humidity: 76%   Direction: NA
Pressure: 30.09"   Gusts: NA
Location:  45.9°N, 91.82°W
Report Text: KHYR 281153Z AUTO VRB03KT 9SM BKN031 OVC039 M13/M17 A3009 RMK AO2 SNE36 SLP223 P0000 60000 T11331167 11133 21156 58030
Loading
Personal Weather Stations






























Interactive Weather Map New forecast layout! Learn more

10-Day Weather Forecast

Advertisements
Track Severe Weather on mobile